Time;durP1;ratioP1;P1;durP2;ratioP2;P2;SDS_P1;SDS_P2;PMS_P1;PMS_P2;Temp;Humidity;BMP_temperature;BMP_pressure;BME280_temperature;BME280_humidity;BME280_pressure;Samples;Min_cycle;Max_cycle;Signal;HPM_P1;HPM_P2
2023/08/03 00:01:27;;;;;;;0.85;0.75;;;18.60;99.90;;;;;;5007540;28;20570;-64
2023/08/03 00:03:53;;;;;;;2.80;0.52;;;18.70;99.90;;;;;;5003552;28;20033;-64
2023/08/03 00:06:19;;;;;;;1.85;0.82;;;18.70;99.90;;;;;;5014150;28;20033;-64
2023/08/03 00:08:45;;;;;;;1.05;0.85;;;18.70;99.90;;;;;;5013134;28;20026;-64
2023/08/03 00:11:11;;;;;;;1.25;0.80;;;18.70;99.90;;;;;;5012299;28;20516;-64
2023/08/03 00:13:37;;;;;;;1.35;0.63;;;18.70;99.90;;;;;;5009569;28;20038;-64
2023/08/03 00:16:03;;;;;;;1.48;0.65;;;18.70;99.90;;;;;;5006225;28;20033;-64
2023/08/03 00:18:29;;;;;;;4.68;0.80;;;18.70;99.90;;;;;;5006103;28;20040;-64
2023/08/03 00:20:54;;;;;;;2.67;0.93;;;18.70;99.90;;;;;;5008680;28;20049;-64
2023/08/03 00:23:20;;;;;;;3.00;1.00;;;18.70;99.90;;;;;;5014125;28;20049;-64
2023/08/03 00:25:46;;;;;;;1.05;0.70;;;18.70;99.90;;;;;;5013369;28;20037;-64
2023/08/03 00:28:12;;;;;;;1.08;0.75;;;18.70;99.90;;;;;;5014708;28;20049;-64
2023/08/03 00:30:37;;;;;;;1.35;0.90;;;18.70;99.90;;;;;;5010018;28;20640;-64
2023/08/03 00:33:03;;;;;;;1.60;1.20;;;18.70;99.90;;;;;;5009594;28;20037;-64
2023/08/03 00:35:29;;;;;;;2.28;0.98;;;18.80;99.90;;;;;;5007280;28;20029;-64
2023/08/03 00:37:55;;;;;;;2.00;1.30;;;18.70;99.90;;;;;;5006521;28;20409;-64
2023/08/03 00:40:21;;;;;;;1.90;0.75;;;18.80;99.90;;;;;;5012920;28;20087;-64
2023/08/03 00:42:47;;;;;;;2.28;1.02;;;18.80;99.90;;;;;;4995306;28;20038;-64
2023/08/03 00:45:13;;;;;;;3.08;1.10;;;18.80;99.90;;;;;;4994235;28;20036;-63
2023/08/03 00:47:39;;;;;;;1.08;0.70;;;18.80;99.90;;;;;;5009438;28;20486;-64
2023/08/03 00:50:06;;;;;;;0.70;0.70;;;18.90;99.90;;;;;;5008098;28;20044;-64
2023/08/03 00:52:34;;;;;;;2.70;0.90;;;18.90;99.90;;;;;;5011563;28;20119;-64
2023/08/03 00:55:00;;;;;;;1.60;1.08;;;18.90;99.90;;;;;;5002214;28;20706;-64
2023/08/03 00:57:28;;;;;;;1.50;0.85;;;18.90;99.90;;;;;;4991140;28;20037;-64
2023/08/03 00:59:54;;;;;;;2.70;1.08;;;18.90;99.90;;;;;;4996439;28;20041;-64
2023/08/03 01:02:20;;;;;;;2.55;1.02;;;19.00;99.90;;;;;;4993446;28;20030;-64
2023/08/03 01:04:46;;;;;;;0.95;0.80;;;19.00;99.90;;;;;;5011132;28;20083;-64
2023/08/03 01:07:12;;;;;;;1.92;1.10;;;19.00;99.90;;;;;;5009073;28;20465;-64
2023/08/03 01:09:38;;;;;;;1.70;0.80;;;19.00;99.90;;;;;;5007441;28;20121;-64
2023/08/03 01:12:04;;;;;;;3.33;0.90;;;19.00;99.90;;;;;;5002815;28;20041;-64
2023/08/03 01:14:30;;;;;;;1.23;0.93;;;18.90;99.90;;;;;;4986259;28;20038;-64
2023/08/03 01:16:56;;;;;;;1.65;0.93;;;18.90;99.90;;;;;;5014607;28;20038;-64
2023/08/03 01:19:22;;;;;;;4.28;0.98;;;18.80;99.90;;;;;;4993720;28;20037;-64
2023/08/03 01:21:49;;;;;;;0.95;0.90;;;18.80;99.90;;;;;;4993455;28;20088;-64
2023/08/03 01:24:15;;;;;;;1.20;1.10;;;18.80;99.90;;;;;;5008853;28;20443;-64
2023/08/03 01:26:42;;;;;;;1.30;0.80;;;18.80;99.90;;;;;;5007925;28;20109;-64
2023/08/03 01:29:08;;;;;;;2.88;1.02;;;18.80;99.90;;;;;;4988468;28;20072;-64
2023/08/03 01:31:34;;;;;;;3.38;1.25;;;18.80;99.90;;;;;;5004786;28;20128;-64
2023/08/03 01:34:01;;;;;;;1.45;1.10;;;18.80;99.90;;;;;;4997079;28;20109;-64
2023/08/03 01:36:26;;;;;;;3.08;1.08;;;18.70;99.90;;;;;;4992903;28;20092;-64
2023/08/03 01:39:06;;;;;;;3.15;1.15;;;18.60;99.90;;;;;;5011635;28;20873;-64
2023/08/03 01:41:34;;;;;;;2.17;1.00;;;18.60;99.90;;;;;;4988423;28;20050;-64
2023/08/03 01:44:29;;;;;;;2.22;1.27;;;18.60;99.90;;;;;;5007017;28;20088;-64
2023/08/03 01:46:56;;;;;;;2.50;1.10;;;18.50;99.90;;;;;;4987680;28;20087;-64
2023/08/03 01:49:26;;;;;;;1.17;1.02;;;18.50;99.90;;;;;;5004644;28;20057;-64
2023/08/03 01:51:52;;;;;;;2.55;1.27;;;18.50;99.90;;;;;;4995606;28;20042;-64
2023/08/03 01:54:18;;;;;;;1.77;1.10;;;18.40;99.90;;;;;;5011320;28;20042;-64
2023/08/03 01:56:44;;;;;;;1.92;1.10;;;18.30;99.90;;;;;;4992679;28;20041;-63
2023/08/03 01:59:10;;;;;;;1.30;1.20;;;18.40;99.90;;;;;;4990773;28;20460;-64
2023/08/03 02:01:36;;;;;;;4.05;1.40;;;18.40;99.90;;;;;;4989257;28;20124;-64
2023/08/03 02:04:02;;;;;;;2.03;1.27;;;18.40;99.90;;;;;;5004479;28;20958;-64
2023/08/03 02:06:28;;;;;;;3.85;1.00;;;18.50;99.90;;;;;;4986944;28;20036;-64
2023/08/03 02:08:54;;;;;;;3.25;1.30;;;18.50;99.90;;;;;;5009783;28;20112;-64
2023/08/03 02:11:20;;;;;;;2.88;1.23;;;18.50;99.90;;;;;;5011317;28;20029;-64
2023/08/03 02:13:46;;;;;;;3.30;1.13;;;18.60;99.90;;;;;;5003644;28;20137;-64
2023/08/03 02:16:12;;;;;;;2.47;1.33;;;18.60;99.90;;;;;;4986817;28;20615;-64
2023/08/03 02:18:40;;;;;;;2.63;1.17;;;18.50;99.90;;;;;;4989452;28;20091;-64
2023/08/03 02:21:06;;;;;;;1.45;1.08;;;18.50;99.90;;;;;;4988608;28;20621;-64
2023/08/03 02:23:33;;;;;;;3.13;1.40;;;18.50;99.90;;;;;;4987005;28;20041;-64
2023/08/03 02:26:02;;;;;;;6.78;1.48;;;18.50;99.90;;;;;;4996976;28;21240;-64
2023/08/03 02:28:30;;;;;;;3.20;1.42;;;18.50;99.90;;;;;;5010815;28;20109;-64
2023/08/03 02:30:57;;;;;;;3.63;1.45;;;18.50;99.90;;;;;;5012320;28;20044;-64
2023/08/03 02:33:25;;;;;;;4.80;1.17;;;18.40;99.90;;;;;;5003446;28;20083;-64
2023/08/03 02:35:51;;;;;;;1.85;1.13;;;18.50;99.90;;;;;;4988914;28;20026;-64
2023/08/03 02:38:17;;;;;;;2.60;1.60;;;18.50;99.90;;;;;;4988296;28;20041;-64
2023/08/03 02:40:43;;;;;;;2.08;1.13;;;18.50;99.90;;;;;;4987551;28;20047;-64
2023/08/03 02:43:10;;;;;;;1.75;1.20;;;18.40;99.90;;;;;;4973974;28;20040;-64
2023/08/03 02:45:40;;;;;;;1.33;0.90;;;18.40;99.90;;;;;;4993271;28;20029;-64
2023/08/03 02:48:07;;;;;;;5.43;1.58;;;18.40;99.90;;;;;;4994198;28;20087;-64
2023/08/03 02:50:33;;;;;;;4.38;1.90;;;18.50;99.90;;;;;;4990795;28;20038;-64
2023/08/03 02:53:05;;;;;;;6.70;1.15;;;18.50;99.90;;;;;;4987296;28;20520;-64
2023/08/03 02:55:30;;;;;;;4.90;1.48;;;18.60;99.90;;;;;;4988275;28;20128;-64
2023/08/03 02:57:58;;;;;;;2.70;1.30;;;18.50;99.90;;;;;;4985073;28;20076;-64
2023/08/03 03:00:23;;;;;;;2.88;1.30;;;18.50;99.90;;;;;;4985930;28;20034;-64
2023/08/03 03:02:50;;;;;;;2.58;1.00;;;18.60;99.90;;;;;;4994341;28;20026;-64
2023/08/03 03:05:20;;;;;;;1.92;1.27;;;18.50;99.90;;;;;;4992466;28;20100;-64
2023/08/03 03:07:47;;;;;;;2.80;1.40;;;18.60;99.90;;;;;;4992238;28;20672;-64
2023/08/03 03:10:14;;;;;;;2.53;1.30;;;18.50;99.90;;;;;;4991022;28;20550;-64
2023/08/03 03:12:41;;;;;;;3.03;1.50;;;18.50;99.90;;;;;;4992181;28;20482;-64
2023/08/03 03:15:08;;;;;;;2.38;1.63;;;18.60;99.90;;;;;;4991262;28;20042;-64
2023/08/03 03:17:34;;;;;;;5.38;1.60;;;18.60;99.90;;;;;;4985547;28;20034;-64
2023/08/03 03:20:01;;;;;;;3.67;1.48;;;18.60;99.90;;;;;;5013853;28;20386;-64
2023/08/03 03:22:28;;;;;;;5.88;1.10;;;18.50;99.90;;;;;;4995713;28;20034;-64
2023/08/03 03:24:55;;;;;;;2.88;1.15;;;18.40;99.90;;;;;;4994881;28;20579;-64
2023/08/03 03:27:20;;;;;;;3.15;1.35;;;18.40;99.90;;;;;;4989083;28;20034;-64
2023/08/03 03:29:50;;;;;;;3.60;1.50;;;18.40;99.90;;;;;;5009730;28;20031;-64
2023/08/03 03:32:17;;;;;;;2.80;1.33;;;18.40;99.90;;;;;;5008440;28;20676;-64
2023/08/03 03:34:44;;;;;;;4.88;1.38;;;18.20;99.90;;;;;;5007189;28;20069;-64
2023/08/03 03:37:12;;;;;;;4.18;1.55;;;18.20;99.90;;;;;;4995630;28;20037;-64
2023/08/03 03:39:39;;;;;;;4.95;1.40;;;18.20;99.90;;;;;;5012093;28;20076;-64
2023/08/03 03:42:09;;;;;;;3.20;1.08;;;18.30;99.90;;;;;;4994870;28;20029;-64
2023/08/03 03:44:36;;;;;;;8.18;1.30;;;18.40;99.90;;;;;;4993240;28;20030;-64
2023/08/03 03:47:02;;;;;;;5.13;1.60;;;18.40;99.90;;;;;;5011517;28;20029;-64
2023/08/03 03:49:33;;;;;;;4.00;1.27;;;18.50;99.90;;;;;;4974589;28;20450;-64
2023/08/03 03:52:01;;;;;;;4.07;1.42;;;18.40;99.90;;;;;;4990539;28;20062;-64
2023/08/03 03:54:27;;;;;;;5.60;1.25;;;18.30;99.90;;;;;;4991703;28;20537;-64
2023/08/03 03:56:55;;;;;;;9.73;1.40;;;18.30;99.90;;;;;;4997389;28;20044;-64
2023/08/03 03:59:21;;;;;;;2.33;1.10;;;18.30;99.90;;;;;;4994554;28;20049;-64
2023/08/03 04:01:47;;;;;;;5.60;1.10;;;18.40;99.90;;;;;;5012027;28;20564;-64
2023/08/03 04:04:13;;;;;;;7.22;1.17;;;18.40;99.90;;;;;;4992267;28;20754;-64
2023/08/03 04:06:38;;;;;;;3.17;1.27;;;18.40;99.90;;;;;;4991022;28;20502;-65
2023/08/03 04:09:04;;;;;;;5.13;1.00;;;18.50;99.90;;;;;;4990193;28;20030;-64
2023/08/03 04:11:30;;;;;;;6.22;1.17;;;18.50;99.90;;;;;;4988557;28;20033;-64
2023/08/03 04:13:56;;;;;;;7.82;1.45;;;18.50;99.90;;;;;;4997962;28;20073;-64
2023/08/03 04:16:21;;;;;;;7.32;1.33;;;18.50;99.90;;;;;;5012686;28;20771;-65
2023/08/03 04:18:47;;;;;;;5.20;1.33;;;18.50;99.90;;;;;;4990893;28;20379;-64
2023/08/03 04:21:13;;;;;;;3.83;1.42;;;18.40;99.90;;;;;;5010067;28;20524;-64
2023/08/03 04:23:39;;;;;;;6.03;1.45;;;18.40;99.90;;;;;;4990629;28;20030;-64
2023/08/03 04:26:07;;;;;;;5.53;1.35;;;18.40;99.90;;;;;;4989934;28;20030;-64
2023/08/03 04:28:33;;;;;;;7.10;1.33;;;18.40;99.90;;;;;;4988532;28;20025;-64
2023/08/03 04:30:59;;;;;;;6.38;1.60;;;18.40;99.90;;;;;;4994363;28;20029;-64
2023/08/03 04:33:26;;;;;;;7.38;1.40;;;18.40;99.90;;;;;;4994211;28;20413;-64
2023/08/03 04:35:56;;;;;;;7.45;1.50;;;18.40;99.90;;;;;;4994177;28;20030;-64
2023/08/03 04:38:26;;;;;;;6.68;1.55;;;18.40;99.90;;;;;;4991711;28;20044;-64
2023/08/03 04:40:56;;;;;;;5.85;1.48;;;18.50;99.90;;;;;;4987950;28;20033;-64
2023/08/03 04:43:25;;;;;;;6.65;1.40;;;18.60;99.90;;;;;;4989248;28;20029;-64
2023/08/03 04:45:51;;;;;;;5.95;1.70;;;18.60;99.90;;;;;;4988205;28;20021;-65
2023/08/03 04:48:17;;;;;;;5.93;1.48;;;18.70;99.90;;;;;;4994963;28;20099;-64
2023/08/03 04:50:43;;;;;;;7.53;1.88;;;18.60;99.90;;;;;;5010703;28;20124;-65
2023/08/03 04:53:11;;;;;;;6.63;1.52;;;18.50;99.90;;;;;;5005443;28;20029;-64
2023/08/03 04:55:37;;;;;;;5.15;1.35;;;18.50;99.90;;;;;;4991747;28;20033;-64
2023/08/03 04:58:03;;;;;;;6.55;1.42;;;18.50;99.90;;;;;;5009984;28;20029;-65
2023/08/03 05:00:31;;;;;;;3.13;1.17;;;18.50;99.90;;;;;;4989474;28;20267;-64
2023/08/03 05:02:58;;;;;;;7.30;1.40;;;18.50;99.90;;;;;;4988549;28;20029;-64
2023/08/03 05:05:23;;;;;;;5.18;1.30;;;18.60;99.90;;;;;;4991138;28;20575;-64
2023/08/03 05:07:49;;;;;;;8.15;1.75;;;18.70;99.90;;;;;;4995648;28;20034;-64
2023/08/03 05:10:20;;;;;;;7.70;1.73;;;18.70;99.90;;;;;;4993494;28;20246;-64
2023/08/03 05:12:45;;;;;;;7.97;1.67;;;18.80;99.90;;;;;;5010461;28;20561;-64
2023/08/03 05:15:11;;;;;;;7.68;1.45;;;18.90;99.90;;;;;;5007988;28;20041;-64
2023/08/03 05:17:39;;;;;;;6.40;1.13;;;18.90;99.90;;;;;;4983794;28;20070;-64
2023/08/03 05:20:06;;;;;;;11.57;1.83;;;18.90;99.90;;;;;;4972702;28;20502;-65
2023/08/03 05:22:31;;;;;;;2.58;0.95;;;19.00;99.90;;;;;;5004979;28;20041;-64
2023/08/03 05:24:57;;;;;;;5.88;1.25;;;18.90;99.90;;;;;;5014835;28;20452;-64
2023/08/03 05:27:23;;;;;;;5.50;1.02;;;19.10;99.90;;;;;;5005257;28;20854;-65
2023/08/03 05:29:49;;;;;;;3.85;1.00;;;19.10;99.90;;;;;;4997257;28;20478;-64
2023/08/03 05:32:15;;;;;;;9.98;2.55;;;19.10;99.90;;;;;;5008231;28;20439;-64
2023/08/03 05:34:41;;;;;;;7.03;1.13;;;19.10;99.90;;;;;;5006024;28;20038;-64
2023/08/03 05:37:06;;;;;;;7.88;1.17;;;19.20;99.90;;;;;;5005419;28;20069;-64
2023/08/03 05:39:33;;;;;;;4.80;1.50;;;19.20;99.90;;;;;;5004986;28;20037;-64
2023/08/03 05:41:59;;;;;;;3.00;1.10;;;19.20;99.90;;;;;;5014924;28;20061;-64
2023/08/03 05:44:25;;;;;;;5.82;1.20;;;19.20;99.90;;;;;;5010842;28;20030;-65
2023/08/03 05:46:51;;;;;;;7.03;1.27;;;19.30;99.90;;;;;;5011032;28;20575;-64
2023/08/03 05:49:16;;;;;;;6.63;1.50;;;19.30;99.90;;;;;;5008750;28;20045;-64
2023/08/03 05:51:42;;;;;;;5.85;1.35;;;19.40;99.90;;;;;;4987716;28;20037;-64
2023/08/03 05:54:17;;;;;;;8.57;1.60;;;19.30;99.90;;;;;;5006036;28;20042;-64
2023/08/03 05:56:43;;;;;;;6.05;0.93;;;19.40;99.90;;;;;;5002509;28;20034;-64
2023/08/03 05:59:21;;;;;;;4.05;1.42;;;19.30;99.90;;;;;;5011590;28;20045;-65
2023/08/03 06:01:51;;;;;;;4.30;1.25;;;19.30;99.90;;;;;;5012199;28;20061;-65
2023/08/03 06:04:18;;;;;;;6.88;1.02;;;19.40;99.90;;;;;;5009991;28;20058;-65
2023/08/03 06:06:45;;;;;;;3.95;1.27;;;19.50;99.90;;;;;;5008775;28;20041;-64
2023/08/03 06:09:12;;;;;;;6.55;1.20;;;19.60;99.90;;;;;;5004994;28;20036;-64
2023/08/03 06:11:38;;;;;;;4.15;1.23;;;19.70;99.90;;;;;;5005936;28;20030;-65
2023/08/03 06:14:06;;;;;;;5.50;1.23;;;19.70;99.90;;;;;;5005384;28;20037;-65
2023/08/03 06:16:32;;;;;;;4.93;0.98;;;19.70;99.90;;;;;;4990095;28;20029;-65
2023/08/03 06:18:59;;;;;;;4.22;0.68;;;19.70;99.90;;;;;;5013716;28;20512;-65
2023/08/03 06:21:26;;;;;;;7.28;1.00;;;19.80;99.90;;;;;;4988984;28;20817;-65
2023/08/03 06:23:54;;;;;;;3.65;1.40;;;19.80;99.90;;;;;;5008691;28;20038;-65
2023/08/03 06:26:21;;;;;;;7.93;1.15;;;19.80;99.90;;;;;;5003632;28;20038;-65
2023/08/03 06:28:49;;;;;;;5.00;1.08;;;19.80;99.90;;;;;;5007389;28;20034;-65
2023/08/03 06:31:15;;;;;;;3.30;1.02;;;20.00;99.90;;;;;;5004823;28;20037;-65
2023/08/03 06:33:43;;;;;;;6.00;0.80;;;20.20;99.90;;;;;;5003939;28;20053;-65
2023/08/03 06:36:18;;;;;;;2.10;0.80;;;20.20;99.90;;;;;;5013448;28;20040;-65
2023/08/03 06:38:44;;;;;;;7.32;1.10;;;20.20;99.90;;;;;;5010695;28;20034;-65
2023/08/03 06:41:10;;;;;;;3.50;1.20;;;20.30;99.90;;;;;;5010192;28;20768;-65
2023/08/03 06:43:36;;;;;;;4.43;0.77;;;20.30;99.90;;;;;;5005436;28;20053;-65
2023/08/03 06:46:02;;;;;;;5.70;1.08;;;20.30;99.90;;;;;;5011465;28;20824;-64
2023/08/03 06:48:28;;;;;;;3.60;1.40;;;20.40;99.90;;;;;;5009309;28;20111;-64
2023/08/03 06:50:55;;;;;;;5.28;1.10;;;20.40;99.90;;;;;;5010581;28;20153;-61
2023/08/03 06:53:21;;;;;;;5.30;0.90;;;20.40;99.90;;;;;;4992587;28;20116;-65
2023/08/03 06:55:48;;;;;;;6.30;0.98;;;20.40;99.90;;;;;;5014585;28;20818;-65
2023/08/03 06:58:17;;;;;;;6.05;1.85;;;20.50;99.90;;;;;;5008986;28;20054;-65
2023/08/03 07:00:44;;;;;;;1.95;0.75;;;20.60;99.90;;;;;;5011206;28;20095;-65
2023/08/03 07:03:10;;;;;;;5.43;1.15;;;20.60;99.90;;;;;;5009340;28;20064;-64
2023/08/03 07:05:36;;;;;;;5.22;1.02;;;20.70;99.90;;;;;;5009260;28;20038;-65
2023/08/03 07:08:02;;;;;;;7.93;0.93;;;20.70;99.90;;;;;;4999419;28;20037;-64
2023/08/03 07:10:28;;;;;;;2.20;0.70;;;20.60;99.90;;;;;;5014713;28;20041;-65
2023/08/03 07:12:53;;;;;;;2.58;0.75;;;20.60;99.90;;;;;;5013321;28;20033;-65
2023/08/03 07:15:19;;;;;;;3.17;0.80;;;20.60;99.90;;;;;;4989791;28;20768;-64
2023/08/03 07:17:46;;;;;;;5.10;0.90;;;20.60;99.90;;;;;;5005031;28;20033;-65
2023/08/03 07:20:12;;;;;;;6.00;1.00;;;20.60;99.90;;;;;;5009857;28;20034;-65
2023/08/03 07:22:38;;;;;;;2.60;0.88;;;20.60;99.90;;;;;;5008116;28;20561;-65
2023/08/03 07:25:04;;;;;;;2.05;0.55;;;20.70;99.90;;;;;;5005854;28;20065;-65
2023/08/03 07:27:31;;;;;;;4.93;0.90;;;20.60;99.90;;;;;;5009210;28;20111;-65
2023/08/03 07:29:57;;;;;;;5.22;0.57;;;20.80;99.90;;;;;;5015417;28;21463;-65
2023/08/03 07:32:23;;;;;;;3.47;0.77;;;20.90;99.90;;;;;;5011859;28;20132;-65
2023/08/03 07:34:49;;;;;;;2.30;0.60;;;20.80;99.90;;;;;;5012078;28;20148;-64
2023/08/03 07:37:15;;;;;;;1.02;0.40;;;20.70;99.90;;;;;;4991598;28;20121;-65
2023/08/03 07:39:41;;;;;;;4.32;0.70;;;20.70;99.90;;;;;;5008084;28;20157;-64
2023/08/03 07:42:06;;;;;;;1.63;0.50;;;20.90;99.90;;;;;;5006891;28;20053;-64
2023/08/03 07:44:32;;;;;;;3.97;0.50;;;21.00;99.90;;;;;;5005622;28;20034;-64
2023/08/03 07:46:58;;;;;;;1.13;0.52;;;21.20;99.90;;;;;;5005005;28;20080;-64
2023/08/03 07:49:24;;;;;;;1.65;0.50;;;21.30;99.90;;;;;;5007763;28;20030;-64
2023/08/03 07:51:50;;;;;;;4.30;0.52;;;21.40;99.90;;;;;;5012235;28;20449;-65
2023/08/03 07:54:16;;;;;;;2.70;0.47;;;21.30;99.90;;;;;;5008685;28;20040;-64
2023/08/03 07:56:42;;;;;;;5.30;0.68;;;21.40;99.90;;;;;;5007808;28;20069;-65
2023/08/03 07:59:10;;;;;;;4.32;0.73;;;21.40;99.90;;;;;;5007038;28;20037;-65
2023/08/03 08:01:37;;;;;;;3.53;0.95;;;21.50;99.90;;;;;;5005279;28;20128;-64
2023/08/03 08:04:03;;;;;;;2.05;0.70;;;21.50;99.90;;;;;;5010475;28;20044;-65
2023/08/03 08:06:29;;;;;;;0.95;0.43;;;21.60;99.30;;;;;;5009477;28;20034;-64
2023/08/03 08:08:54;;;;;;;2.63;0.70;;;21.70;99.90;;;;;;5011211;28;20037;-64
2023/08/03 08:11:20;;;;;;;2.72;0.55;;;21.70;99.30;;;;;;5009278;28;20517;-64
2023/08/03 08:13:46;;;;;;;4.30;0.50;;;21.50;99.60;;;;;;5006790;28;20481;-64
2023/08/03 08:16:14;;;;;;;1.90;0.60;;;21.50;99.70;;;;;;5001988;28;20042;-64
2023/08/03 08:18:40;;;;;;;3.00;0.40;;;21.40;99.90;;;;;;5004751;28;20033;-65
2023/08/03 08:21:11;;;;;;;1.33;0.30;;;21.50;99.90;;;;;;5012179;28;20037;-65
2023/08/03 08:23:37;;;;;;;1.88;0.57;;;21.60;99.90;;;;;;5010931;28;20543;-62
2023/08/03 08:26:17;;;;;;;2.13;0.50;;;21.80;99.50;;;;;;5007122;28;20024;-64
2023/08/03 08:28:45;;;;;;;1.33;0.50;;;22.00;99.70;;;;;;4992097;28;20855;-64
2023/08/03 08:31:10;;;;;;;0.25;0.25;;;22.10;99.10;;;;;;5008561;28;20409;-64
2023/08/03 08:33:37;;;;;;;6.45;0.65;;;22.10;98.90;;;;;;5006379;28;20443;-64
2023/08/03 08:36:03;;;;;;;6.65;0.80;;;22.20;98.30;;;;;;5004183;28;20041;-64
2023/08/03 08:38:30;;;;;;;5.35;0.40;;;22.20;97.70;;;;;;5002909;28;20410;-64
2023/08/03 08:40:56;;;;;;;0.68;0.30;;;22.20;97.90;;;;;;5013959;28;20049;-64
2023/08/03 08:43:22;;;;;;;3.03;0.45;;;22.30;97.40;;;;;;5006833;28;20034;-64
2023/08/03 08:45:48;;;;;;;4.30;0.30;;;22.10;97.80;;;;;;5009684;28;20046;-64
2023/08/03 08:48:14;;;;;;;0.63;0.20;;;21.90;97.40;;;;;;5008202;28;20034;-64
2023/08/03 08:50:41;;;;;;;0.82;0.40;;;22.00;98.30;;;;;;5007252;28;20034;-64
2023/08/03 08:53:07;;;;;;;0.80;0.30;;;22.10;97.80;;;;;;5004080;28;20124;-64
2023/08/03 08:55:33;;;;;;;0.75;0.30;;;22.30;98.10;;;;;;5003572;28;20124;-64
2023/08/03 08:57:59;;;;;;;0.65;0.30;;;22.40;96.50;;;;;;5008206;28;20030;-64
2023/08/03 09:00:26;;;;;;;2.40;0.30;;;22.60;97.40;;;;;;5009851;28;20183;-64
2023/08/03 09:03:11;;;;;;;1.98;0.50;;;22.60;96.10;;;;;;5010972;28;20038;-64
2023/08/03 09:05:39;;;;;;;23.80;17.23;;;22.70;97.00;;;;;;5002239;28;20033;-66
2023/08/03 09:08:11;;;;;;;4.93;2.40;;;22.60;96.80;;;;;;5003775;28;20038;-65
2023/08/03 09:10:54;;;;;;;5.90;2.95;;;22.50;96.60;;;;;;5005648;28;20046;-64
2023/08/03 09:13:26;;;;;;;2.33;1.38;;;22.50;97.30;;;;;;5008034;28;20037;-64
2023/08/03 09:15:52;;;;;;;2.55;1.73;;;22.60;97.60;;;;;;5012481;28;20057;-64
2023/08/03 09:18:19;;;;;;;4.25;0.77;;;22.60;96.60;;;;;;5010786;28;20117;-65
2023/08/03 09:20:45;;;;;;;9.38;6.53;;;22.50;97.10;;;;;;5009775;28;20121;-64
2023/08/03 09:23:30;;;;;;;1.38;0.63;;;22.30;97.70;;;;;;5006100;28;20120;-65
2023/08/03 09:25:55;;;;;;;2.50;1.20;;;22.30;97.60;;;;;;5006370;28;20628;-65
2023/08/03 09:28:37;;;;;;;0.93;0.52;;;22.30;97.40;;;;;;5004142;28;20034;-65
2023/08/03 09:31:04;;;;;;;2.80;0.77;;;22.30;97.10;;;;;;5007047;28;20044;-65
2023/08/03 09:33:30;;;;;;;3.15;0.52;;;22.30;96.50;;;;;;5010873;28;20042;-65
2023/08/03 09:36:13;;;;;;;4.43;0.70;;;22.30;96.60;;;;;;5012245;28;20584;-65
2023/08/03 09:38:40;;;;;;;3.22;1.85;;;22.30;96.60;;;;;;5006907;28;20073;-65
2023/08/03 09:41:06;;;;;;;7.18;4.13;;;22.30;96.30;;;;;;5008502;28;20457;-65
2023/08/03 09:43:34;;;;;;;17.60;8.27;;;22.50;96.80;;;;;;5005083;28;20334;-65
2023/08/03 09:46:01;;;;;;;24.75;11.05;;;22.50;95.50;;;;;;5004673;28;20040;-65
2023/08/03 09:48:27;;;;;;;11.32;5.78;;;22.70;96.00;;;;;;5003517;28;20096;-66
2023/08/03 09:50:55;;;;;;;3.60;1.80;;;22.70;96.00;;;;;;5013282;28;20057;-65
2023/08/03 09:53:25;;;;;;;3.85;0.98;;;22.80;95.90;;;;;;5009662;28;20482;-65
2023/08/03 09:55:58;;;;;;;1.00;0.43;;;22.80;95.40;;;;;;4994104;28;20049;-65
2023/08/03 09:58:28;;;;;;;7.32;3.28;;;22.70;95.60;;;;;;5003602;28;20117;-65
2023/08/03 10:00:57;;;;;;;1.15;0.35;;;22.80;95.80;;;;;;5011029;28;20057;-65
2023/08/03 10:03:23;;;;;;;0.57;0.20;;;22.80;94.60;;;;;;5004507;28;20031;-65
2023/08/03 10:06:06;;;;;;;1.13;0.20;;;22.80;94.60;;;;;;5004917;28;20038;-65
2023/08/03 10:08:38;;;;;;;4.80;0.43;;;22.90;94.30;;;;;;5006361;28;20026;-65
2023/08/03 10:11:09;;;;;;;75.80;42.13;;;22.80;94.40;;;;;;5005772;28;20036;-65
2023/08/03 10:13:40;;;;;;;5.57;2.60;;;22.70;94.50;;;;;;5004091;28;20885;-65
2023/08/03 10:16:06;;;;;;;0.77;0.40;;;22.70;95.20;;;;;;5001557;28;20033;-64
2023/08/03 10:18:35;;;;;;;2.95;1.30;;;22.80;94.70;;;;;;5003320;28;20161;-65
2023/08/03 10:21:01;;;;;;;0.60;0.40;;;22.90;95.00;;;;;;5004701;28;20517;-64
2023/08/03 10:23:28;;;;;;;1.17;0.40;;;22.80;94.30;;;;;;5003020;28;20038;-64
2023/08/03 10:25:58;;;;;;;2.05;0.65;;;22.70;94.80;;;;;;5012015;28;20139;-64
2023/08/03 10:28:24;;;;;;;2.25;0.50;;;22.90;95.00;;;;;;5009406;28;20065;-65
2023/08/03 10:31:16;;;;;;;0.90;0.20;;;23.10;94.40;;;;;;5010014;28;20119;-65
2023/08/03 10:33:51;;;;;;;2.42;0.50;;;23.10;94.20;;;;;;5006543;28;20041;-65
2023/08/03 10:36:26;;;;;;;0.67;0.40;;;22.90;94.30;;;;;;4996773;28;20493;-65
2023/08/03 10:39:04;;;;;;;2.75;0.38;;;22.80;94.20;;;;;;5005211;28;20693;-65
2023/08/03 10:41:36;;;;;;;2.88;0.30;;;22.60;94.50;;;;;;5003108;28;20066;-65
2023/08/03 10:44:05;;;;;;;2.92;0.25;;;22.40;94.10;;;;;;5013093;28;20033;-65
2023/08/03 10:46:42;;;;;;;3.35;0.50;;;22.20;94.40;;;;;;5009543;28;20033;-66
2023/08/03 10:49:20;;;;;;;2.63;0.73;;;22.30;94.40;;;;;;5005217;28;20030;-65
2023/08/03 10:51:51;;;;;;;2.05;0.32;;;22.50;94.90;;;;;;5001737;28;20456;-64
2023/08/03 10:54:22;;;;;;;4.00;0.40;;;22.60;94.60;;;;;;5002804;28;20095;-65
2023/08/03 10:57:10;;;;;;;1.52;0.50;;;22.90;94.90;;;;;;5004764;28;20865;-64
2023/08/03 10:59:36;;;;;;;3.22;0.45;;;23.00;94.50;;;;;;5000571;28;20034;-65
2023/08/03 11:02:20;;;;;;;1.85;0.35;;;22.90;94.10;;;;;;5012910;28;20083;-64
2023/08/03 11:04:50;;;;;;;2.08;0.40;;;22.80;93.60;;;;;;5008803;28;20042;-65
2023/08/03 11:07:20;;;;;;;1.85;0.43;;;22.80;93.70;;;;;;5007468;28;20029;-65
2023/08/03 11:09:49;;;;;;;3.28;0.30;;;22.90;94.00;;;;;;5007195;28;20037;-65
2023/08/03 11:12:18;;;;;;;3.58;0.40;;;23.00;94.00;;;;;;5001273;28;20034;-65
2023/08/03 11:14:46;;;;;;;3.60;0.50;;;22.90;92.90;;;;;;5003823;28;20136;-64
2023/08/03 11:17:15;;;;;;;2.28;0.20;;;22.80;93.30;;;;;;5002293;28;20040;-64
2023/08/03 11:19:43;;;;;;;0.50;0.45;;;22.80;92.90;;;;;;5010101;28;20034;-65
2023/08/03 11:22:08;;;;;;;1.45;0.40;;;22.80;93.20;;;;;;5010121;28;20676;-65
2023/08/03 11:24:35;;;;;;;1.75;0.75;;;22.80;93.00;;;;;;5007186;28;20033;-65
2023/08/03 11:27:03;;;;;;;1.08;0.50;;;22.80;92.70;;;;;;5008004;28;20044;-65
2023/08/03 11:29:31;;;;;;;1.65;0.30;;;22.80;93.10;;;;;;5004750;28;20032;-65
2023/08/03 11:31:56;;;;;;;0.75;0.30;;;23.00;93.00;;;;;;4988416;28;20044;-66
2023/08/03 11:34:24;;;;;;;1.92;0.45;;;23.10;92.80;;;;;;4988169;28;20033;-65
2023/08/03 11:36:51;;;;;;;1.80;0.75;;;23.10;92.20;;;;;;5013586;28;20033;-66
2023/08/03 11:39:20;;;;;;;3.40;0.30;;;23.10;92.20;;;;;;5013099;28;20170;-65
2023/08/03 11:41:48;;;;;;;0.80;0.20;;;23.10;91.90;;;;;;4994921;28;20040;-66
2023/08/03 11:44:14;;;;;;;0.50;0.28;;;23.10;91.90;;;;;;5009894;28;20045;-65
2023/08/03 11:46:40;;;;;;;1.35;0.30;;;23.00;92.20;;;;;;5008866;28;20434;-65
2023/08/03 11:49:12;;;;;;;2.05;0.50;;;23.00;91.60;;;;;;5007654;28;20034;-65
2023/08/03 11:51:38;;;;;;;0.65;0.30;;;23.10;92.20;;;;;;5002647;28;20056;-65
2023/08/03 11:54:05;;;;;;;0.68;0.40;;;23.20;92.10;;;;;;4997204;28;20026;-66
2023/08/03 11:56:33;;;;;;;3.00;0.30;;;23.20;91.20;;;;;;5000910;28;20029;-64
2023/08/03 11:59:01;;;;;;;0.90;0.80;;;23.00;91.30;;;;;;5010775;28;20041;-64
2023/08/03 12:01:27;;;;;;;2.60;0.50;;;22.90;92.00;;;;;;5009545;28;20038;-64
2023/08/03 12:04:10;;;;;;;1.25;0.47;;;22.80;92.20;;;;;;5009641;28;20033;-65
2023/08/03 12:06:53;;;;;;;1.83;0.35;;;22.80;92.60;;;;;;5007058;28;20030;-65
2023/08/03 12:09:22;;;;;;;2.25;0.30;;;22.70;92.10;;;;;;5006412;28;20524;-65
2023/08/03 12:11:48;;;;;;;0.65;0.30;;;22.60;92.60;;;;;;5009316;28;20069;-64
2023/08/03 12:14:14;;;;;;;0.95;0.28;;;22.60;92.30;;;;;;5013624;28;20029;-64
2023/08/03 12:16:40;;;;;;;0.60;0.30;;;22.40;91.90;;;;;;5011506;28;20037;-64
2023/08/03 12:19:08;;;;;;;2.45;0.60;;;22.40;92.80;;;;;;5011770;28;20035;-65
2023/08/03 12:21:37;;;;;;;2.08;0.30;;;22.50;92.60;;;;;;5008529;28;20779;-64
2023/08/03 12:24:05;;;;;;;1.83;0.60;;;22.60;92.80;;;;;;5005862;28;20033;-64
2023/08/03 12:26:31;;;;;;;0.93;0.40;;;22.70;93.50;;;;;;5004271;28;20014;-64
2023/08/03 12:28:57;;;;;;;2.20;0.40;;;22.60;94.10;;;;;;5007195;28;20041;-64
2023/08/03 12:31:24;;;;;;;2.05;0.30;;;22.30;94.20;;;;;;5013396;28;20041;-64
2023/08/03 12:33:50;;;;;;;2.78;0.30;;;22.10;94.50;;;;;;5012683;28;20038;-64
2023/08/03 12:36:17;;;;;;;1.15;0.30;;;21.80;95.50;;;;;;5009597;28;20655;-64
2023/08/03 12:38:43;;;;;;;1.10;0.38;;;21.70;95.40;;;;;;5004105;28;20037;-64
2023/08/03 12:41:09;;;;;;;1.95;0.38;;;21.80;95.40;;;;;;5009006;28;20597;-64
2023/08/03 12:43:35;;;;;;;1.45;0.43;;;21.90;95.40;;;;;;5004926;28;20400;-64
2023/08/03 12:46:01;;;;;;;1.17;0.40;;;22.00;95.20;;;;;;5008539;28;20037;-64
2023/08/03 12:48:27;;;;;;;2.13;0.38;;;22.00;94.70;;;;;;5012904;28;20037;-64